KNRS

Details ICAO KNRS
Name IMPERIAL BEACH
Region United States
Timezone America/Los_Angeles (UTC-7.0)
Plans Departing 2
Arriving 2
Stats Elevation 24 ft / 7 m (AMSL)
Location 32.566154° -117.112607°
Runways 2
Magnetic Variation 11.439° E
Sunrise 2018-05-27 12:44:54 UTC / 2018-05-27 05:44:54 Local
Sunset 2018-05-28 02:49:16 UTC / 2018-05-27 19:49:16 Local
Advertisement - Login to hide

Runways

ID Width Length Bearing (true) Bearing (mag) Surface Threshold Offset Overrun Length
08 151 ft / 46 m 2,243 ft / 684 m 105.23° 93.79° Concrete 0 ft / 0 m 0 ft / 0 m
09 341 ft / 104 m 4,991 ft / 1,521 m 105.20° 93.76° Concrete 0 ft / 0 m 0 ft / 0 m
26 151 ft / 46 m 2,243 ft / 684 m 285.23° 273.79° Concrete 0 ft / 0 m 0 ft / 0 m
27 341 ft / 104 m 4,991 ft / 1,521 m 285.20° 273.76° Concrete 0 ft / 0 m 0 ft / 0 m

Map

Weather


0- 5 10 15 20 25 30 35+ Temperature / ° C

Clouds and Precipitation
Forecast for 2018-05-28 00:00 UTC. Updated 4 hours ago

Ground ~20,000 ft ~40,000 ft Winds

METAR

KNRS 280256Z AUTO 26004KT 10SM OVC017 17/12 A2995 RMK AO2 SLP140 T01720122 53005

TAF

Not found

Frequencies

Tower 120.65 MHz TWR
Warning: Do not use this data for real-world aviation or navigation. No guarantee of current accuracy is given.